Time;durP1;ratioP1;P1;durP2;ratioP2;P2;SDS_P1;SDS_P2;PMS_P1;PMS_P2;Temp;Humidity;BMP_temperature;BMP_pressure;BME280_temperature;BME280_humidity;BME280_pressure;Samples;Min_cycle;Max_cycle;Signal;HPM_P1;HPM_P2
2021/12/16 00:01:51;;;;;;;20.15;9.27;;;;;;;;;;5032912;28;20064;-75
2021/12/16 00:05:09;;;;;;;17.00;8.43;;;;;;;;;;5033036;28;20045;-74
2021/12/16 00:07:29;;;;;;;;;;;;;;;;;;5015437;28;20776;-75
2021/12/16 00:10:00;;;;;;;21.50;9.27;;;;;;;;;;5032878;28;20082;-75
2021/12/16 00:34:01;;;;;;;19.27;9.20;;;;;;;;;;5032294;28;20309;-74
2021/12/16 00:36:29;;;;;;;25.20;10.27;;;;;;;;;;5015337;28;20280;-74
2021/12/16 00:38:55;;;;;;;15.87;8.03;;;;;;;;;;5032425;28;20284;-74
2021/12/16 00:41:21;;;;;;;20.63;9.10;;;;;;;;;;5032689;28;20284;-75
2021/12/16 00:44:03;;;;;;;17.77;9.03;;;;;;;;;;5032326;28;20284;-75
2021/12/16 00:54:29;;;;;;;23.25;9.88;;;;;;;;;;5036612;28;20330;-74
2021/12/16 00:57:00;;;;;;;20.17;9.90;;;;;;;;;;5036222;28;20055;-74
2021/12/16 00:59:32;;;;;;;25.33;10.10;;;;;;;;;;5036641;28;20276;-75
2021/12/16 01:04:59;;;;;;;21.30;9.20;;;;;;;;;;5036441;28;20280;-74
2021/12/16 01:49:54;;;;;;;19.73;9.03;;;;;;;;;;5034923;28;20299;-74
2021/12/16 01:55:12;;;;;;;15.37;8.70;;;;;;;;;;5035218;28;20276;-74
2021/12/16 01:57:41;;;;;;;18.67;8.97;;;;;;;;;;5035574;28;20277;-75
2021/12/16 02:00:17;;;;;;;19.80;8.97;;;;;;;;;;5034710;28;20299;-74
2021/12/16 02:02:51;;;;;;;16.70;8.43;;;;;;;;;;5035192;28;20274;-74
2021/12/16 02:05:31;;;;;;;21.17;8.53;;;;;;;;;;5035318;28;20720;-74
2021/12/16 02:10:34;;;;;;;25.77;9.10;;;;;;;;;;5035046;28;20833;-73
2021/12/16 02:37:49;;;;;;;17.73;8.73;;;;;;;;;;5023000;28;20303;-74
2021/12/16 02:40:17;;;;;;;19.67;9.43;;;;;;;;;;5034802;28;20291;-74
2021/12/16 02:43:21;;;;;;;22.03;9.13;;;;;;;;;;5034501;28;20287;-74
2021/12/16 02:48:33;;;;;;;17.55;9.85;;;;;;;;;;5034510;28;20280;-74
2021/12/16 02:51:19;;;;;;;22.50;9.83;;;;;;;;;;5016462;28;20050;-74
2021/12/16 02:53:47;;;;;;;20.50;9.53;;;;;;;;;;5033900;28;20366;-74
2021/12/16 02:56:14;;;;;;;22.47;9.57;;;;;;;;;;5034333;28;20284;-74
2021/12/16 02:58:41;;;;;;;20.73;10.13;;;;;;;;;;5034269;28;20368;-74
2021/12/16 03:01:12;;;;;;;18.63;9.87;;;;;;;;;;5033914;28;20284;-74
2021/12/16 03:03:39;;;;;;;21.00;9.27;;;;;;;;;;5034306;28;20276;-74
2021/12/16 03:06:06;;;;;;;20.13;10.13;;;;;;;;;;5033899;28;20276;-74
2021/12/16 03:08:33;;;;;;;25.07;10.27;;;;;;;;;;5034182;28;20721;-74
2021/12/16 03:11:19;;;;;;;17.10;10.30;;;;;;;;;;5032504;28;20767;-74
2021/12/16 03:16:25;;;;;;;18.53;9.53;;;;;;;;;;5033911;28;20361;-74
2021/12/16 03:21:43;;;;;;;22.27;11.03;;;;;;;;;;5002505;28;20784;-74
2021/12/16 03:25:07;;;;;;;16.33;9.13;;;;;;;;;;5033473;28;20680;-74
2021/12/16 03:39:39;;;;;;;20.13;9.87;;;;;;;;;;5033610;28;20288;-74
2021/12/16 03:42:05;;;;;;;20.67;8.80;;;;;;;;;;5033083;28;20384;-74
2021/12/16 03:44:49;;;;;;;17.87;8.97;;;;;;;;;;5033394;28;20288;-74
2021/12/16 03:47:17;;;;;;;18.80;9.63;;;;;;;;;;5033199;28;20318;-74
2021/12/16 03:49:43;;;;;;;17.67;9.77;;;;;;;;;;5033276;28;20357;-74
2021/12/16 03:52:10;;;;;;;16.93;9.10;;;;;;;;;;5032883;28;20295;-74
2021/12/16 03:54:40;;;;;;;16.87;9.60;;;;;;;;;;5033228;28;20363;-74
2021/12/16 03:57:09;;;;;;;16.37;8.43;;;;;;;;;;5032957;28;20614;-74
2021/12/16 03:59:36;;;;;;;16.77;9.60;;;;;;;;;;5033307;28;20370;-74
2021/12/16 04:02:05;;;;;;;18.73;8.57;;;;;;;;;;5032816;28;20288;-74
2021/12/16 04:04:31;;;;;;;18.40;9.17;;;;;;;;;;5015899;28;20291;-74
2021/12/16 04:06:58;;;;;;;15.97;8.60;;;;;;;;;;5032691;28;20375;-74
2021/12/16 04:09:24;;;;;;;16.77;8.50;;;;;;;;;;5033014;28;20791;-74
2021/12/16 04:11:57;;;;;;;17.53;7.97;;;;;;;;;;5032991;28;20334;-74
2021/12/16 04:14:24;;;;;;;21.60;10.27;;;;;;;;;;5033019;28;20280;-74
2021/12/16 04:16:52;;;;;;;16.37;8.57;;;;;;;;;;5015431;28;20284;-74
2021/12/16 04:19:20;;;;;;;17.23;8.30;;;;;;;;;;5014992;28;20375;-74
2021/12/16 04:21:48;;;;;;;16.83;9.02;;;;;;;;;;5032425;28;20818;-74
2021/12/16 04:24:15;;;;;;;20.47;8.93;;;;;;;;;;5032585;28;20049;-74
2021/12/16 04:26:42;;;;;;;21.27;9.00;;;;;;;;;;5032545;28;20854;-74
2021/12/16 04:29:08;;;;;;;19.77;9.13;;;;;;;;;;5032503;28;20334;-74
2021/12/16 04:31:36;;;;;;;19.67;8.73;;;;;;;;;;5032866;28;20053;-74
2021/12/16 04:34:03;;;;;;;21.40;9.30;;;;;;;;;;5032405;28;20308;-74
2021/12/16 04:36:29;;;;;;;26.40;10.73;;;;;;;;;;5015349;28;20644;-74
2021/12/16 04:38:56;;;;;;;21.70;9.40;;;;;;;;;;5032425;28;20832;-74
2021/12/16 04:41:22;;;;;;;24.83;9.43;;;;;;;;;;5032670;28;20339;-74
2021/12/16 04:43:51;;;;;;;25.07;9.53;;;;;;;;;;5032718;28;20363;-74
2021/12/16 04:46:19;;;;;;;21.07;9.73;;;;;;;;;;5032384;28;20281;-75
2021/12/16 04:48:46;;;;;;;21.87;9.83;;;;;;;;;;5032615;28;20367;-74
2021/12/16 04:51:13;;;;;;;17.23;9.57;;;;;;;;;;5032245;28;20371;-74
2021/12/16 04:53:40;;;;;;;17.87;9.00;;;;;;;;;;5032494;28;20296;-74
2021/12/16 04:56:07;;;;;;;19.57;9.07;;;;;;;;;;5032155;28;20280;-75
2021/12/16 04:58:33;;;;;;;27.77;10.93;;;;;;;;;;5032514;28;20375;-74
2021/12/16 05:01:00;;;;;;;27.43;9.97;;;;;;;;;;5032291;28;20287;-74
2021/12/16 05:03:26;;;;;;;19.38;9.55;;;;;;;;;;5032539;28;20747;-74
2021/12/16 05:05:52;;;;;;;17.17;9.40;;;;;;;;;;5032217;28;20474;-74
2021/12/16 05:08:19;;;;;;;19.80;9.93;;;;;;;;;;5032209;28;20049;-74
2021/12/16 05:10:47;;;;;;;17.90;9.07;;;;;;;;;;5032393;28;20330;-74
2021/12/16 05:13:13;;;;;;;23.33;9.50;;;;;;;;;;5032090;28;20350;-74
2021/12/16 05:15:42;;;;;;;26.60;10.93;;;;;;;;;;5032309;28;20045;-74
2021/12/16 05:18:09;;;;;;;16.93;9.43;;;;;;;;;;5032036;28;20747;-74
2021/12/16 05:20:40;;;;;;;14.07;7.60;;;;;;;;;;5032239;28;20781;-74
2021/12/16 05:28:21;;;;;;;17.43;8.87;;;;;;;;;;5031994;28;20139;-74
2021/12/16 05:30:48;;;;;;;18.33;8.80;;;;;;;;;;5032099;28;20730;-74
2021/12/16 05:33:14;;;;;;;17.33;8.80;;;;;;;;;;5031926;28;20431;-74
2021/12/16 05:35:41;;;;;;;19.67;8.57;;;;;;;;;;5035555;28;20051;-74
2021/12/16 05:38:07;;;;;;;16.80;8.77;;;;;;;;;;5035493;28;20322;-74
2021/12/16 05:40:34;;;;;;;14.50;8.93;;;;;;;;;;5035720;28;20284;-74
2021/12/16 05:43:11;;;;;;;21.00;9.20;;;;;;;;;;5035852;28;20287;-74
2021/12/16 05:45:38;;;;;;;23.00;9.97;;;;;;;;;;5035856;28;20283;-74
2021/12/16 05:48:05;;;;;;;19.10;10.20;;;;;;;;;;5035264;28;20338;-75
2021/12/16 05:50:33;;;;;;;18.77;8.43;;;;;;;;;;5035590;28;20288;-74
2021/12/16 05:52:59;;;;;;;19.43;8.60;;;;;;;;;;5035484;28;20303;-74
2021/12/16 05:55:25;;;;;;;18.70;9.77;;;;;;;;;;5035064;28;20298;-74
2021/12/16 05:57:52;;;;;;;22.60;10.00;;;;;;;;;;5035339;28;20374;-74
2021/12/16 06:00:23;;;;;;;17.67;10.10;;;;;;;;;;5034989;28;20790;-74
2021/12/16 06:02:50;;;;;;;15.57;9.37;;;;;;;;;;5035342;28;20736;-74
2021/12/16 06:05:16;;;;;;;20.30;10.53;;;;;;;;;;5035017;28;20281;-74
2021/12/16 06:07:42;;;;;;;17.00;8.80;;;;;;;;;;5035394;28;20664;-74
2021/12/16 06:10:35;;;;;;;22.37;9.50;;;;;;;;;;5034819;28;20643;-74
2021/12/16 06:12:58;;;;;;;22.23;11.57;;;;;;;;;;5034703;28;20887;-74
2021/12/16 06:29:04;;;;;;;16.53;9.87;;;;;;;;;;5034834;28;20057;-75
2021/12/16 06:31:31;;;;;;;18.13;9.87;;;;;;;;;;5034492;28;20610;-75
2021/12/16 06:33:57;;;;;;;21.98;11.60;;;;;;;;;;5034533;28;20740;-75
2021/12/16 06:36:23;;;;;;;19.98;9.82;;;;;;;;;;5034483;28;20474;-75
2021/12/16 06:38:49;;;;;;;18.27;10.40;;;;;;;;;;5034764;28;20053;-74
2021/12/16 06:41:16;;;;;;;21.03;10.43;;;;;;;;;;5034302;28;20326;-74
2021/12/16 06:43:43;;;;;;;18.07;9.83;;;;;;;;;;5017124;28;20292;-74
2021/12/16 06:46:14;;;;;;;22.37;11.57;;;;;;;;;;5033994;28;20291;-75
2021/12/16 06:48:43;;;;;;;17.47;9.87;;;;;;;;;;5017102;28;20324;-74
2021/12/16 06:51:20;;;;;;;20.37;10.33;;;;;;;;;;5016773;28;20292;-75
2021/12/16 06:54:02;;;;;;;20.80;11.50;;;;;;;;;;5034321;28;20296;-75
2021/12/16 06:56:36;;;;;;;19.07;11.43;;;;;;;;;;5033984;28;20287;-74
2021/12/16 06:59:10;;;;;;;20.70;10.93;;;;;;;;;;5034286;28;20345;-74
2021/12/16 07:04:05;;;;;;;23.87;11.87;;;;;;;;;;5034325;28;20696;-74
2021/12/16 07:06:32;;;;;;;24.83;11.73;;;6.50;99.90;;;;;;5033817;28;20650;-75
2021/12/16 07:09:13;;;;;;;21.40;10.90;;;6.60;99.90;;;;;;5034025;28;20283;-75
2021/12/16 07:11:42;;;;;;;24.83;13.03;;;6.60;99.90;;;;;;5034062;28;20339;-75
2021/12/16 07:14:15;;;;;;;22.02;12.85;;;6.50;99.90;;;;;;5033852;28;20296;-73
2021/12/16 07:16:44;;;;;;;29.02;13.32;;;6.50;99.90;;;;;;5034003;28;20049;-74
2021/12/16 07:19:10;;;;;;;25.87;13.73;;;6.60;99.90;;;;;;5033977;28;20045;-74
2021/12/16 07:21:40;;;;;;;21.63;14.63;;;6.60;99.90;;;;;;5033072;28;20303;-73
2021/12/16 07:24:08;;;;;;;36.10;16.13;;;6.60;99.90;;;;;;5016498;28;20644;-73
2021/12/16 07:26:35;;;;;;;32.15;14.00;;;6.60;99.90;;;;;;5033370;28;20299;-73
2021/12/16 07:29:03;;;;;;;26.33;13.90;;;6.60;99.90;;;;;;5033718;28;20049;-74
2021/12/16 07:31:30;;;;;;;43.20;15.70;;;6.60;99.90;;;;;;5033395;28;20401;-74
2021/12/16 07:33:56;;;;;;;38.03;15.32;;;6.60;99.90;;;;;;5033600;28;20041;-74
2021/12/16 07:36:23;;;;;;;35.33;14.50;;;6.70;99.90;;;;;;5015824;28;20080;-74
2021/12/16 07:38:49;;;;;;;89.18;17.15;;;6.70;99.90;;;;;;5033470;28;20371;-74
2021/12/16 07:41:20;;;;;;;117.20;20.00;;;6.70;99.90;;;;;;5033191;28;20053;-73
2021/12/16 07:46:21;;;;;;;;;;;6.60;99.90;;;;;;5033713;28;20629;-74
2021/12/16 07:48:47;;;;;;;101.65;16.55;;;6.70;99.90;;;;;;5033672;28;20341;-74
2021/12/16 07:51:13;;;;;;;128.73;16.77;;;6.70;99.90;;;;;;5015755;28;20092;-73
2021/12/16 07:53:40;;;;;;;87.38;15.27;;;6.70;99.90;;;;;;5032568;28;20504;-73
2021/12/16 07:56:06;;;;;;;61.15;14.07;;;6.70;99.90;;;;;;5032719;28;20053;-73
2021/12/16 07:58:33;;;;;;;62.90;15.18;;;6.60;99.90;;;;;;5032893;28;20397;-74
2021/12/16 08:01:00;;;;;;;46.90;13.33;;;6.70;99.90;;;;;;5033180;28;20371;-74
2021/12/16 08:03:27;;;;;;;137.35;18.23;;;6.70;99.90;;;;;;5032725;28;20393;-74
2021/12/16 08:05:58;;;;;;;69.07;14.45;;;6.70;99.90;;;;;;5033096;28;20046;-74
2021/12/16 08:08:24;;;;;;;30.58;13.48;;;6.70;99.90;;;;;;5032827;28;20050;-73
2021/12/16 08:10:54;;;;;;;38.30;12.98;;;6.70;99.90;;;;;;5033091;28;20045;-73
2021/12/16 08:13:20;;;;;;;57.28;14.80;;;6.70;99.90;;;;;;5032646;28;20147;-73
2021/12/16 08:15:46;;;;;;;52.13;13.60;;;6.70;99.90;;;;;;5032607;28;20089;-74
2021/12/16 08:18:12;;;;;;;32.50;12.93;;;6.80;99.90;;;;;;5033075;28;20049;-74
2021/12/16 08:20:38;;;;;;;47.37;14.47;;;6.80;99.90;;;;;;5032603;28;20298;-73
2021/12/16 08:23:05;;;;;;;68.93;15.03;;;6.80;99.90;;;;;;5033039;28;20373;-73
2021/12/16 08:25:31;;;;;;;49.23;15.07;;;6.80;99.90;;;;;;5032515;28;20362;-74
2021/12/16 08:28:00;;;;;;;36.63;12.90;;;6.80;99.90;;;;;;5015496;28;20292;-73
2021/12/16 08:30:29;;;;;;;82.20;15.63;;;6.90;99.90;;;;;;5014854;28;20711;-73
2021/12/16 08:32:56;;;;;;;37.03;13.33;;;6.90;99.90;;;;;;5015293;28;20654;-74
2021/12/16 08:35:23;;;;;;;46.50;13.30;;;6.90;99.90;;;;;;5014932;28;20309;-74
2021/12/16 08:37:49;;;;;;;45.95;13.38;;;6.90;99.90;;;;;;5032720;28;20280;-74
2021/12/16 08:40:18;;;;;;;52.93;15.07;;;6.90;99.90;;;;;;5032688;28;20050;-73
2021/12/16 08:42:45;;;;;;;25.73;11.67;;;7.00;99.90;;;;;;5032481;28;20324;-74
2021/12/16 08:45:17;;;;;;;38.50;14.27;;;7.00;99.90;;;;;;5032666;28;20316;-73
2021/12/16 08:47:44;;;;;;;38.88;15.05;;;7.00;99.90;;;;;;5032436;28;20767;-73
2021/12/16 08:50:13;;;;;;;26.40;13.00;;;7.10;99.90;;;;;;5032694;28;20060;-74
2021/12/16 08:52:39;;;;;;;42.60;15.33;;;7.00;99.90;;;;;;5032208;28;20379;-74
2021/12/16 08:55:06;;;;;;;27.20;13.07;;;7.10;99.90;;;;;;5015386;28;20387;-73
2021/12/16 08:57:31;;;;;;;34.33;13.13;;;7.10;99.90;;;;;;5014682;28;20099;-73
2021/12/16 08:59:57;;;;;;;25.97;12.87;;;7.10;99.90;;;;;;5032534;28;20411;-73
2021/12/16 09:02:23;;;;;;;51.60;16.03;;;7.10;99.90;;;;;;5032256;28;20049;-73
2021/12/16 09:04:51;;;;;;;36.90;15.70;;;7.20;99.90;;;;;;5032516;28;20052;-72
2021/12/16 09:07:17;;;;;;;53.70;16.23;;;7.20;99.90;;;;;;5032778;28;20099;-72
2021/12/16 09:09:45;;;;;;;85.07;17.50;;;7.30;99.90;;;;;;5036074;28;20284;-72
2021/12/16 09:12:38;;;;;;;33.40;15.17;;;7.20;99.90;;;;;;5036296;28;20744;-73
2021/12/16 09:15:12;;;;;;;33.43;15.67;;;7.20;99.90;;;;;;5036251;28;20306;-72
2021/12/16 09:17:38;;;;;;;37.03;16.00;;;7.20;99.90;;;;;;5036039;28;20319;-73
2021/12/16 09:20:06;;;;;;;37.13;14.90;;;7.20;99.90;;;;;;5035894;28;20342;-72
2021/12/16 09:22:31;;;;;;;49.53;16.33;;;7.30;99.90;;;;;;5036006;28;20295;-76
2021/12/16 09:24:57;;;;;;;67.57;16.80;;;7.30;99.90;;;;;;5036061;28;20288;-76
2021/12/16 09:27:24;;;;;;;77.90;15.57;;;7.30;99.90;;;;;;5018552;28;20045;-74
2021/12/16 09:29:50;;;;;;;99.33;16.67;;;7.30;99.90;;;;;;5035964;28;20056;-72
2021/12/16 09:32:17;;;;;;;32.67;13.57;;;7.30;99.90;;;;;;5035897;28;20358;-73
2021/12/16 09:34:45;;;;;;;56.47;15.73;;;7.30;99.90;;;;;;5035531;28;20640;-73
2021/12/16 09:37:11;;;;;;;36.50;13.73;;;7.30;99.90;;;;;;5036024;28;20311;-72
2021/12/16 09:39:38;;;;;;;76.87;14.33;;;7.30;99.90;;;;;;5035457;28;20606;-72
2021/12/16 09:42:07;;;;;;;56.13;13.80;;;7.30;99.90;;;;;;5035732;28;20280;-72
2021/12/16 09:44:33;;;;;;;32.67;14.30;;;7.30;99.90;;;;;;5035425;28;20363;-72
2021/12/16 09:47:01;;;;;;;64.40;15.10;;;7.40;99.90;;;;;;5035947;28;20312;-73
2021/12/16 09:49:27;;;;;;;57.87;14.77;;;7.40;99.90;;;;;;5017627;28;20048;-74
2021/12/16 09:51:55;;;;;;;56.40;15.83;;;7.40;99.90;;;;;;5035568;28;20285;-72
2021/12/16 09:54:26;;;;;;;69.83;16.37;;;7.40;99.90;;;;;;5035670;28;20042;-72
2021/12/16 09:56:53;;;;;;;103.20;16.50;;;7.40;99.90;;;;;;5035825;28;20334;-73
2021/12/16 09:59:21;;;;;;;51.50;14.90;;;7.40;99.90;;;;;;5035435;28;20284;-73
2021/12/16 10:01:49;;;;;;;47.07;13.80;;;7.40;99.90;;;;;;5035057;28;21011;-72
2021/12/16 10:04:19;;;;;;;61.57;15.23;;;7.50;99.90;;;;;;5035285;28;20316;-72
2021/12/16 10:06:48;;;;;;;43.17;14.80;;;7.50;99.90;;;;;;5035134;28;20284;-72
2021/12/16 10:09:14;;;;;;;33.97;14.23;;;7.50;99.90;;;;;;5035258;28;20284;-71
2021/12/16 10:11:44;;;;;;;39.10;15.33;;;7.60;99.90;;;;;;5034904;28;20287;-72
2021/12/16 10:19:31;;;;;;;38.83;16.10;;;7.60;99.90;;;;;;5034621;28;20327;-72
2021/12/16 10:22:15;;;;;;;25.03;13.87;;;;;;;;;;5035133;28;20303;-72
2021/12/16 10:24:42;;;;;;;45.23;16.57;;;;;;;;;;5017242;28;20288;-72
2021/12/16 10:27:08;;;;;;;48.33;14.20;;;;;;;;;;5035192;28;20431;-72
2021/12/16 10:29:36;;;;;;;38.83;15.33;;;8.00;99.90;;;;;;5034568;28;20288;-73
2021/12/16 10:32:03;;;;;;;40.43;14.87;;;7.90;99.90;;;;;;5034864;28;20280;-72
2021/12/16 10:34:29;;;;;;;30.77;14.40;;;8.00;99.90;;;;;;5034838;28;20555;-72
2021/12/16 10:36:57;;;;;;;25.93;13.83;;;8.00;99.90;;;;;;5034674;28;20337;-72
2021/12/16 10:39:25;;;;;;;26.13;12.90;;;;;;;;;;5034645;28;20117;-72
2021/12/16 10:42:04;;;;;;;25.63;12.33;;;;;;;;;;5034359;28;20284;-71
2021/12/16 10:44:35;;;;;;;22.77;12.90;;;8.00;99.90;;;;;;5034693;28;20287;-72
2021/12/16 10:47:14;;;;;;;26.00;12.30;;;8.00;99.90;;;;;;5016458;28;20288;-74
2021/12/16 10:49:50;;;;;;;18.10;12.10;;;8.10;99.90;;;;;;5024324;28;20371;-73
2021/12/16 10:52:20;;;;;;;18.40;12.17;;;8.10;99.90;;;;;;5005546;28;20306;-72
2021/12/16 10:54:48;;;;;;;23.27;12.90;;;8.10;99.90;;;;;;5028605;28;20300;-73
2021/12/16 10:57:18;;;;;;;25.43;12.07;;;8.20;99.90;;;;;;5028628;28;20775;-73
2021/12/16 10:59:50;;;;;;;29.33;13.03;;;8.20;99.90;;;;;;5028139;28;20296;-74
2021/12/16 11:02:28;;;;;;;30.73;12.77;;;8.20;99.90;;;;;;5011306;28;20281;-75
2021/12/16 11:05:12;;;;;;;25.60;12.60;;;8.30;99.90;;;;;;4998609;28;20890;-74
2021/12/16 11:07:44;;;;;;;29.53;12.73;;;;;;;;;;5003894;28;20279;-73
2021/12/16 11:10:13;;;;;;;28.70;13.80;;;;;;;;;;5028370;28;20298;-74
2021/12/16 11:12:51;;;;;;;33.33;13.73;;;;;;;;;;5028270;28;20307;-76
2021/12/16 11:15:23;;;;;;;35.60;15.33;;;;;;;;;;5028650;28;20372;-74
2021/12/16 11:17:59;;;;;;;32.77;14.50;;;;;;;;;;5031659;28;20359;-74
2021/12/16 11:20:31;;;;;;;28.10;13.47;;;;;;;;;;5033869;28;20288;-74
2021/12/16 11:22:59;;;;;;;29.70;14.00;;;;;;;;;;5033592;28;20288;-72
2021/12/16 11:25:27;;;;;;;26.13;13.13;;;;;;;;;;5016467;28;20637;-72
2021/12/16 11:28:06;;;;;;;33.10;14.50;;;;;;;;;;5016044;28;20316;-72
2021/12/16 11:30:36;;;;;;;36.00;15.43;;;;;;;;;;5033675;28;20625;-72
2021/12/16 11:33:10;;;;;;;33.23;15.70;;;;;;;;;;5033223;28;20293;-72
2021/12/16 11:35:42;;;;;;;36.93;16.17;;;;;;;;;;5033629;28;20292;-76
2021/12/16 11:38:13;;;;;;;37.70;15.80;;;;;;;;;;5033339;28;20803;-73
2021/12/16 11:41:08;;;;;;;33.53;15.03;;;;;;;;;;5033425;28;20367;-76
2021/12/16 11:43:43;;;;;;;34.53;15.40;;;;;;;;;;5016596;28;20331;-71
2021/12/16 11:46:15;;;;;;;34.07;14.10;;;;;;;;;;5033529;28;20135;-72
2021/12/16 11:48:41;;;;;;;31.23;15.07;;;;;;;;;;5033148;28;20053;-73
2021/12/16 11:51:34;;;;;;;47.40;17.93;;;;;;;;;;5015652;28;20823;-72
2021/12/16 11:54:02;;;;;;;42.20;17.40;;;;;;;;;;5028991;28;20319;-72
2021/12/16 11:56:42;;;;;;;37.23;15.00;;;;;;;;;;5033226;28;20319;-72
2021/12/16 11:59:09;;;;;;;37.73;14.83;;;;;;;;;;5032974;28;20829;-72
2021/12/16 12:01:36;;;;;;;45.13;17.27;;;;;;;;;;5033609;28;20280;-72
2021/12/16 12:04:04;;;;;;;41.33;15.97;;;;;;;;;;5032892;28;20280;-73
2021/12/16 12:06:31;;;;;;;47.17;17.20;;;;;;;;;;5033129;28;20280;-73
2021/12/16 12:08:58;;;;;;;36.00;15.87;;;;;;;;;;5015395;28;20296;-72
2021/12/16 12:11:34;;;;;;;52.93;17.10;;;;;;;;;;5033106;28;20351;-72
2021/12/16 12:14:06;;;;;;;58.40;17.70;;;;;;;;;;5032721;28;20340;-72
2021/12/16 12:16:43;;;;;;;41.10;17.67;;;;;;;;;;5033118;28;20338;-72
2021/12/16 12:19:17;;;;;;;36.90;17.77;;;;;;;;;;5015331;28;20810;-71
2021/12/16 12:21:44;;;;;;;47.08;17.85;;;;;;;;;;5032101;28;20383;-73
2021/12/16 12:24:15;;;;;;;44.57;18.30;;;;;;;;;;5015451;28;20057;-72
2021/12/16 12:26:45;;;;;;;42.67;17.07;;;;;;;;;;5015196;28;20300;-75
2021/12/16 12:29:14;;;;;;;39.40;16.53;;;;;;;;;;5015455;28;20292;-75
2021/12/16 12:31:43;;;;;;;52.97;18.77;;;;;;;;;;5032816;28;20284;-75
2021/12/16 12:34:10;;;;;;;47.93;18.57;;;;;;;;;;5015191;28;20377;-75
2021/12/16 12:36:36;;;;;;;45.10;19.13;;;;;;;;;;4999015;28;20304;-75
2021/12/16 12:39:06;;;;;;;47.63;19.10;;;;;;;;;;5032468;28;20299;-75
2021/12/16 12:41:32;;;;;;;49.67;19.70;;;;;;;;;;5032963;28;20376;-75
2021/12/16 12:44:01;;;;;;;52.23;19.73;;;;;;;;;;5035779;28;20288;-75
2021/12/16 12:46:27;;;;;;;60.97;20.23;;;;;;;;;;5036785;28;20287;-72
2021/12/16 12:48:55;;;;;;;48.33;18.77;;;;;;;;;;5019066;28;20286;-73
2021/12/16 12:51:30;;;;;;;65.37;20.87;;;;;;;;;;5036951;28;20287;-71
2021/12/16 12:53:56;;;;;;;53.87;17.03;;;;;;;;;;5036362;28;20391;-72
2021/12/16 12:56:28;;;;;;;51.67;17.07;;;;;;;;;;5036701;28;20302;-72
2021/12/16 12:58:59;;;;;;;56.80;18.70;;;;;;;;;;5036304;28;20379;-71
2021/12/16 13:01:51;;;;;;;97.63;21.33;;;;;;;;;;5036560;28;20288;-73
2021/12/16 13:04:28;;;;;;;60.03;20.23;;;;;;;;;;5032054;28;20307;-74
2021/12/16 13:06:54;;;;;;;51.53;18.87;;;;;;;;;;5036129;28;20383;-73
2021/12/16 13:09:24;;;;;;;53.17;18.47;;;;;;;;;;5036336;28;20285;-72
2021/12/16 13:11:51;;;;;;;55.13;20.87;;;;;;;;;;5035957;28;20763;-72
2021/12/16 13:25:56;;;;;;;82.83;25.67;;;;;;;;;;5035833;28;20054;-72
2021/12/16 13:28:14;;;;;;;65.63;23.83;;;;;;;;;;5035436;28;20388;-72
2021/12/16 13:30:51;;;;;;;60.33;21.92;;;;;;;;;;5036122;28;20284;-71
2021/12/16 13:33:26;;;;;;;82.00;25.17;;;;;;;;;;5035948;28;20049;-72
2021/12/16 13:36:02;;;;;;;75.40;25.35;;;;;;;;;;5018180;28;20303;-74
2021/12/16 13:38:37;;;;;;;72.17;23.43;;;;;;;;;;5002542;28;20162;-72
2021/12/16 13:41:11;;;;;;;52.10;22.98;;;;;;;;;;5035794;28;20287;-73
2021/12/16 13:43:38;;;;;;;61.07;22.93;;;;;;;;;;5035848;28;20143;-72
2021/12/16 13:46:32;;;;;;;54.83;22.43;;;;;;;;;;5035420;28;20739;-73
2021/12/16 14:03:44;;;;;;;43.03;20.03;;;;;;;;;;5035147;28;20459;-71
2021/12/16 14:06:21;;;;;;;42.23;21.03;;;;;;;;;;5034055;28;20460;-71
2021/12/16 14:08:49;;;;;;;47.17;20.80;;;;;;;;;;5035514;28;20276;-71
2021/12/16 14:25:14;;;;;;;61.17;23.57;;;;;;;;;;5035051;28;20381;-71
2021/12/16 14:46:59;;;;;;;55.00;25.73;;;;;;;;;;5034833;28;20363;-71
2021/12/16 14:49:33;;;;;;;63.93;26.37;;;;;;;;;;5016929;28;20791;-72
2021/12/16 14:51:59;;;;;;;54.50;25.77;;;;;;;;;;5016795;28;20288;-72
2021/12/16 14:54:26;;;;;;;61.30;27.20;;;;;;;;;;5034399;28;20346;-72
2021/12/16 14:56:57;;;;;;;58.17;27.10;;;;;;;;;;5034451;28;20320;-72
2021/12/16 14:59:25;;;;;;;57.57;25.33;;;;;;;;;;5017352;28;20792;-72
2021/12/16 15:01:53;;;;;;;59.50;25.83;;;;;;;;;;5034409;28;20284;-72
2021/12/16 15:04:23;;;;;;;65.40;27.47;;;;;;;;;;5033998;28;20287;-72
2021/12/16 15:06:58;;;;;;;62.93;26.07;;;;;;;;;;5034148;28;20276;-73
2021/12/16 15:09:28;;;;;;;58.67;26.70;;;;;;;;;;5034468;28;20280;-72
2021/12/16 15:12:05;;;;;;;57.27;25.53;;;;;;;;;;5034022;28;20298;-72
2021/12/16 15:40:13;;;;;;;61.30;25.70;;;;;;;;;;5033439;28;20052;-75
2021/12/16 15:42:51;;;;;;;52.33;22.73;;;;;;;;;;5033134;28;20748;-73
2021/12/16 15:45:23;;;;;;;46.20;23.20;;;;;;;;;;5033076;28;20322;-75
2021/12/16 15:48:13;;;;;;;48.77;22.07;;;;;;;;;;5033107;28;20280;-74
2021/12/16 15:50:39;;;;;;;52.33;21.10;;;;;;;;;;5023190;28;20300;-74
2021/12/16 15:53:07;;;;;;;48.33;21.40;;;;;;;;;;5032430;28;20934;-74
2021/12/16 15:55:45;;;;;;;53.43;21.30;;;;;;;;;;5032986;28;20284;-74
2021/12/16 15:58:13;;;;;;;49.17;22.40;;;;;;;;;;5032722;28;20338;-74
2021/12/16 16:00:42;;;;;;;49.00;22.87;;;;;;;;;;4999175;28;20703;-74
2021/12/16 16:03:10;;;;;;;46.23;20.63;;;;;;;;;;5032755;28;20272;-72
2021/12/16 16:05:39;;;;;;;56.20;23.10;;;;;;;;;;5032942;28;20283;-73
2021/12/16 16:08:06;;;;;;;49.57;22.37;;;;;;;;;;5014829;28;20284;-73
2021/12/16 16:10:33;;;;;;;49.70;23.77;;;;;;;;;;4999237;28;20284;-74
2021/12/16 16:13:08;;;;;;;58.47;24.67;;;;;;;;;;5032789;28;20386;-75
2021/12/16 16:15:34;;;;;;;54.83;22.45;;;;;;;;;;5032725;28;20331;-74
2021/12/16 16:18:12;;;;;;;60.83;25.33;;;;;;;;;;5014879;28;20174;-74
2021/12/16 16:20:40;;;;;;;57.73;24.40;;;;;;;;;;5033356;28;20314;-74
2021/12/16 16:23:08;;;;;;;75.47;27.40;;;;;;;;;;5032555;28;20288;-74
2021/12/16 16:25:35;;;;;;;74.23;26.63;;;;;;;;;;5032670;28;20774;-74
2021/12/16 16:28:02;;;;;;;85.00;29.00;;;;;;;;;;5032670;28;20637;-72
2021/12/16 16:30:29;;;;;;;75.97;27.07;;;;;;;;;;5032275;28;20284;-72
2021/12/16 16:33:18;;;;;;;77.53;25.87;;;;;;;;;;5032668;28;20318;-74
2021/12/16 16:35:47;;;;;;;69.27;25.27;;;;;;;;;;5022204;28;20299;-74
2021/12/16 16:38:15;;;;;;;63.80;26.40;;;;;;;;;;5032346;28;20280;-74
2021/12/16 16:40:43;;;;;;;74.73;26.60;;;;;;;;;;5032697;28;20280;-73
2021/12/16 16:43:16;;;;;;;78.67;27.40;;;;;;;;;;5032336;28;20276;-74
2021/12/16 16:45:44;;;;;;;90.97;29.57;;;;;;;;;;5032551;28;20363;-74
2021/12/16 16:48:27;;;;;;;88.00;29.47;;;;;;;;;;5032217;28;20286;-75
2021/12/16 16:51:29;;;;;;;92.03;31.80;;;;;;;;;;5032366;28;20759;-75
2021/12/16 16:54:05;;;;;;;78.47;28.93;;;;;;;;;;4932730;29;20395;-73
2021/12/16 16:56:34;;;;;;;83.67;29.10;;;;;;;;;;5018587;28;20294;-75
2021/12/16 16:59:08;;;;;;;85.50;32.20;;;;;;;;;;5032411;28;20100;-73
2021/12/16 17:01:35;;;;;;;75.70;32.23;;;;;;;;;;5032585;28;20279;-73
2021/12/16 17:04:03;;;;;;;89.63;32.27;;;;;;;;;;4998251;28;20423;-75
2021/12/16 17:06:30;;;;;;;91.23;33.43;;;;;;;;;;5032004;28;20351;-75
2021/12/16 17:08:57;;;;;;;108.07;34.97;;;;;;;;;;5032269;28;20284;-74
2021/12/16 17:11:25;;;;;;;109.30;34.27;;;;;;;;;;5031542;28;20760;-75
2021/12/16 17:14:00;;;;;;;98.00;33.60;;;;;;;;;;5032114;28;20700;-75
2021/12/16 17:19:17;;;;;;;97.53;31.83;;;;;;;;;;5032009;28;20060;-76
2021/12/16 17:21:47;;;;;;;121.17;36.27;;;;;;;;;;5032275;28;20636;-78
2021/12/16 17:24:16;;;;;;;113.47;35.13;;;;;;;;;;5031859;28;20462;-76
2021/12/16 17:26:59;;;;;;;95.67;32.23;;;;;;;;;;5032358;28;20283;-77
2021/12/16 17:29:25;;;;;;;84.90;29.80;;;;;;;;;;5032445;28;20685;-76
2021/12/16 17:31:57;;;;;;;104.80;33.23;;;;;;;;;;5036148;28;20368;-76
2021/12/16 17:34:31;;;;;;;116.00;35.50;;;;;;;;;;5035641;28;20307;-76
2021/12/16 17:37:02;;;;;;;109.20;37.37;;;;;;;;;;5035962;28;20740;-76
2021/12/16 17:39:31;;;;;;;95.10;34.70;;;;;;;;;;5035445;28;20778;-75
2021/12/16 17:42:08;;;;;;;103.30;36.50;;;;;;;;;;5035551;28;20617;-75
2021/12/16 17:44:35;;;;;;;98.07;35.10;;;;;;;;;;5035474;28;20280;-77
2021/12/16 17:47:15;;;;;;;102.20;32.53;;;;;;;;;;5035793;28;20276;-80
2021/12/16 17:49:42;;;;;;;114.83;33.43;;;;;;;;;;5035621;28;20287;-78
2021/12/16 17:52:14;;;;;;;92.93;32.27;;;;;;;;;;5035312;28;20788;-80
2021/12/16 17:54:45;;;;;;;102.90;32.83;;;;;;;;;;5018153;28;20312;-75
2021/12/16 17:57:11;;;;;;;111.70;31.97;;;;;;;;;;5035497;28;20288;-76
2021/12/16 17:59:38;;;;;;;154.17;37.83;;;;;;;;;;5035143;28;20280;-78
2021/12/16 18:02:05;;;;;;;118.77;34.77;;;;;;;;;;5017983;28;20301;-79
2021/12/16 18:04:34;;;;;;;85.13;32.90;;;;;;;;;;5035164;28;20284;-80
2021/12/16 18:07:05;;;;;;;152.13;38.73;;;;;;;;;;5001634;28;20284;-79
2021/12/16 18:09:33;;;;;;;120.63;34.13;;;;;;;;;;5035130;28;20363;-79
2021/12/16 18:12:06;;;;;;;105.53;33.80;;;;;;;;;;5035460;28;20376;-78